createdAt,value
2022-12-04T00:00:34.867Z,75.70
2022-12-04T00:03:04.871Z,75.24
2022-12-04T00:05:34.702Z,74.83
2022-12-04T00:08:04.403Z,74.31
2022-12-04T00:10:34.648Z,73.96
2022-12-04T00:13:04.523Z,73.91
2022-12-04T00:15:34.461Z,73.43
2022-12-04T00:18:04.381Z,73.02
2022-12-04T00:20:34.921Z,72.82
2022-12-04T00:23:04.644Z,72.89
2022-12-04T00:25:40.719Z,72.83
2022-12-04T00:28:11.048Z,72.67
2022-12-04T00:30:44.077Z,72.12
2022-12-04T00:33:14.094Z,71.12
2022-12-04T00:35:44.084Z,71.10
2022-12-04T00:38:14.103Z,70.11
2022-12-04T00:40:51.072Z,69.50
2022-12-04T00:43:21.023Z,68.41
2022-12-04T00:45:50.722Z,68.11
2022-12-04T00:48:20.849Z,67.10
2022-12-04T00:50:50.969Z,66.90
2022-12-04T00:53:20.729Z,66.76
2022-12-04T00:55:50.494Z,66.43
2022-12-04T00:58:20.197Z,66.25
2022-12-04T01:00:50.040Z,65.65
2022-12-04T01:03:19.949Z,65.15
2022-12-04T01:05:50.146Z,64.76
2022-12-04T01:08:20.035Z,64.83
2022-12-04T01:10:50.100Z,64.33
2022-12-04T01:13:19.872Z,64.26
2022-12-04T01:15:49.517Z,63.23
2022-12-04T01:18:19.191Z,63.14
2022-12-04T01:20:50.117Z,63.30
2022-12-04T01:23:20.035Z,63.26
2022-12-04T01:25:53.535Z,62.13
2022-12-04T01:28:23.404Z,62.32
2022-12-04T01:31:03.156Z,62.34
2022-12-04T01:33:32.852Z,62.40
2022-12-04T01:36:02.947Z,62.21
2022-12-04T01:38:32.639Z,61.15
2022-12-04T01:41:02.775Z,60.74
2022-12-04T01:43:33.287Z,61.16
2022-12-04T01:46:03.141Z,60.85
2022-12-04T01:48:33.750Z,60.00
2022-12-04T01:51:06.982Z,60.04
2022-12-04T01:53:36.870Z,60.03
2022-12-04T01:56:06.791Z,60.29
2022-12-04T01:58:39.094Z,59.89
2022-12-04T02:01:09.560Z,59.88
2022-12-04T02:03:39.982Z,59.87
2022-12-04T02:06:09.878Z,60.32
2022-12-04T02:08:39.575Z,59.99
2022-12-04T02:11:12.750Z,59.41
2022-12-04T02:13:43.716Z,59.51
2022-12-04T02:16:14.669Z,59.61
2022-12-04T02:18:47.258Z,59.60
2022-12-04T02:21:18.617Z,59.41
2022-12-04T02:23:58.453Z,59.05
2022-12-04T02:26:39.083Z,59.37
2022-12-04T02:29:10.286Z,59.39
2022-12-04T02:31:41.735Z,59.61
2022-12-04T02:34:14.148Z,59.83
2022-12-04T02:36:44.849Z,59.47
2022-12-04T02:39:15.644Z,59.13
2022-12-04T02:41:46.412Z,58.92
2022-12-04T02:44:17.053Z,59.13
2022-12-04T02:46:47.537Z,58.89
2022-12-04T02:49:18.007Z,58.58
2022-12-04T02:51:48.029Z,58.72
2022-12-04T02:54:18.918Z,58.85
2022-12-04T02:56:48.935Z,58.67
2022-12-04T02:59:20.505Z,58.73
2022-12-04T03:01:51.281Z,58.38
2022-12-04T03:04:21.447Z,58.56
2022-12-04T03:06:52.243Z,58.13
2022-12-04T03:09:23.424Z,58.15
2022-12-04T03:11:53.640Z,58.51
2022-12-04T03:14:23.926Z,58.09
2022-12-04T03:16:54.793Z,57.54
2022-12-04T03:19:25.021Z,57.44
2022-12-04T03:21:55.466Z,57.78
2022-12-04T03:24:25.980Z,58.20
2022-12-04T03:26:57.711Z,58.78
2022-12-04T03:29:28.662Z,58.71
2022-12-04T03:32:00.038Z,58.98
2022-12-04T03:34:30.910Z,59.11
2022-12-04T03:37:01.384Z,59.43
2022-12-04T03:39:32.091Z,59.62
2022-12-04T03:42:03.143Z,59.67
2022-12-04T03:44:34.323Z,59.04
2022-12-04T03:47:05.577Z,58.75
2022-12-04T03:49:39.774Z,58.01
2022-12-04T03:52:11.107Z,57.31
2022-12-04T03:54:42.106Z,57.26
2022-12-04T03:57:12.374Z,56.79
2022-12-04T03:59:42.390Z,56.59
2022-12-04T04:02:13.987Z,55.48
2022-12-04T04:04:44.428Z,55.33
2022-12-04T04:07:15.820Z,55.40
2022-12-04T04:09:46.374Z,55.43
2022-12-04T04:12:17.118Z,54.40
2022-12-04T04:15:06.257Z,54.63
2022-12-04T04:17:53.874Z,54.62
2022-12-04T04:20:42.118Z,54.48
2022-12-04T04:23:30.573Z,54.38
2022-12-04T04:26:00.628Z,54.21
2022-12-04T04:28:31.758Z,53.85
2022-12-04T04:31:04.213Z,54.25
2022-12-04T04:33:34.411Z,54.36
2022-12-04T04:36:05.518Z,54.37
2022-12-04T04:38:36.665Z,54.55
2022-12-04T04:41:09.119Z,54.71
2022-12-04T04:43:41.097Z,54.52
2022-12-04T04:46:12.642Z,54.56
2022-12-04T04:48:42.933Z,54.44
2022-12-04T04:51:12.813Z,54.81
2022-12-04T04:53:44.143Z,54.51
2022-12-04T04:56:15.637Z,54.66
2022-12-04T04:58:45.402Z,54.71
2022-12-04T05:01:15.543Z,54.61
2022-12-04T05:03:45.441Z,54.33
2022-12-04T05:06:15.676Z,54.01
2022-12-04T05:08:45.649Z,54.24
2022-12-04T05:11:15.629Z,54.07
2022-12-04T05:13:45.442Z,54.17
2022-12-04T05:16:15.786Z,54.27
2022-12-04T05:19:05.957Z,54.35
2022-12-04T05:21:35.815Z,54.22
2022-12-04T05:24:05.812Z,54.12
2022-12-04T05:26:35.694Z,54.14
2022-12-04T05:29:06.032Z,54.07
2022-12-04T05:31:36.176Z,54.36
2022-12-04T05:34:06.624Z,54.34
2022-12-04T05:36:36.640Z,54.31
2022-12-04T05:39:06.997Z,53.75
2022-12-04T05:41:36.787Z,53.75
2022-12-04T05:44:07.212Z,53.78
2022-12-04T05:46:37.281Z,53.65
2022-12-04T05:49:07.470Z,53.47
2022-12-04T05:51:37.150Z,53.14
2022-12-04T05:54:07.231Z,53.03
2022-12-04T05:56:37.112Z,52.62
2022-12-04T05:59:07.219Z,52.55
2022-12-04T06:01:36.988Z,52.52
2022-12-04T06:04:06.970Z,52.54
2022-12-04T06:06:36.686Z,52.43
2022-12-04T06:09:06.817Z,52.54
2022-12-04T06:11:37.137Z,52.70
2022-12-04T06:14:08.194Z,52.28
2022-12-04T06:16:38.302Z,52.37
2022-12-04T06:19:08.840Z,52.14
2022-12-04T06:21:39.157Z,51.91
2022-12-04T06:24:09.157Z,51.82
2022-12-04T06:26:52.009Z,51.92
2022-12-04T06:29:28.896Z,51.33
2022-12-04T06:31:58.662Z,51.19
2022-12-04T06:34:28.582Z,50.99
2022-12-04T06:36:58.469Z,51.03
2022-12-04T06:39:28.323Z,51.15
2022-12-04T06:41:58.100Z,50.89
2022-12-04T06:44:27.966Z,50.44
2022-12-04T06:47:00.783Z,50.32
2022-12-04T06:49:31.169Z,50.34
2022-12-04T06:52:00.928Z,50.22
2022-12-04T06:54:30.647Z,50.19
2022-12-04T06:57:00.465Z,50.36
2022-12-04T06:59:30.939Z,50.23
2022-12-04T07:02:00.727Z,50.03
2022-12-04T07:04:30.672Z,50.11
2022-12-04T07:07:00.575Z,50.08
2022-12-04T07:09:30.560Z,49.71
2022-12-04T07:12:00.294Z,49.07
2022-12-04T07:14:30.193Z,49.28
2022-12-04T07:17:00.090Z,49.43
2022-12-04T07:19:29.980Z,49.49
2022-12-04T07:21:59.811Z,49.36
2022-12-04T07:24:29.648Z,49.09
2022-12-04T07:26:59.465Z,48.62
2022-12-04T07:29:29.332Z,48.24
2022-12-04T07:31:59.094Z,48.04
2022-12-04T07:34:28.888Z,48.18
2022-12-04T07:36:58.680Z,48.07
2022-12-04T07:39:28.551Z,47.72
2022-12-04T07:41:58.591Z,47.48
2022-12-04T07:44:28.649Z,47.46
2022-12-04T07:46:58.463Z,47.55
2022-12-04T07:49:28.394Z,47.79
2022-12-04T07:51:58.541Z,47.24
2022-12-04T07:54:28.406Z,46.96
2022-12-04T07:56:59.051Z,47.05
2022-12-04T07:59:29.069Z,46.78
2022-12-04T08:02:01.156Z,46.99
2022-12-04T08:04:31.290Z,46.88
2022-12-04T08:07:01.101Z,45.89
2022-12-04T08:09:32.187Z,45.73
2022-12-04T08:12:02.242Z,45.49
2022-12-04T08:14:32.441Z,45.80
2022-12-04T08:17:02.420Z,45.72
2022-12-04T08:19:32.119Z,45.44
2022-12-04T08:22:01.924Z,45.62
2022-12-04T08:24:31.676Z,45.14
2022-12-04T08:27:01.669Z,44.46
2022-12-04T08:29:31.424Z,44.95
2022-12-04T08:32:01.906Z,45.17
2022-12-04T08:34:31.827Z,45.12
2022-12-04T08:37:01.841Z,45.08
2022-12-04T08:39:31.570Z,44.21
2022-12-04T08:42:01.310Z,43.51
2022-12-04T08:44:31.084Z,43.55
2022-12-04T08:47:00.784Z,43.73
2022-12-04T08:49:30.583Z,43.66
2022-12-04T08:52:00.537Z,43.58
2022-12-04T08:54:35.806Z,43.64
2022-12-04T08:57:06.409Z,43.52
2022-12-04T08:59:36.316Z,43.47
2022-12-04T09:02:06.184Z,42.89
2022-12-04T09:04:37.650Z,42.48
2022-12-04T09:07:07.691Z,42.90
2022-12-04T09:09:37.963Z,42.94
2022-12-04T09:12:07.816Z,43.19
2022-12-04T09:14:37.970Z,43.20
2022-12-04T09:17:08.153Z,42.78
2022-12-04T09:19:37.926Z,42.72
2022-12-04T09:22:08.032Z,42.74
2022-12-04T09:24:38.015Z,42.19
2022-12-04T09:27:14.515Z,41.93
2022-12-04T09:29:45.044Z,41.74
2022-12-04T09:32:15.254Z,41.68
2022-12-04T09:34:48.315Z,41.34
2022-12-04T09:37:21.435Z,41.69
2022-12-04T09:39:51.488Z,41.47
2022-12-04T09:42:24.346Z,41.16
2022-12-04T09:44:54.914Z,41.08
2022-12-04T09:47:26.160Z,41.33
2022-12-04T09:49:59.229Z,41.30
2022-12-04T09:52:36.280Z,41.02
2022-12-04T09:55:06.718Z,40.76
2022-12-04T09:57:38.424Z,40.68
2022-12-04T10:00:09.527Z,40.64
2022-12-04T10:02:41.880Z,40.22
2022-12-04T10:05:16.437Z,40.36
2022-12-04T10:07:47.503Z,40.29
2022-12-04T10:10:19.369Z,40.29
2022-12-04T10:12:51.519Z,40.12
2022-12-04T10:15:24.651Z,40.38
2022-12-04T10:17:57.760Z,40.38
2022-12-04T10:20:32.218Z,39.68
2022-12-04T10:23:07.136Z,39.81
2022-12-04T10:25:41.931Z,40.06
2022-12-04T10:28:13.860Z,39.63
2022-12-04T10:30:44.204Z,39.34
2022-12-04T10:33:15.882Z,39.50
2022-12-04T10:35:46.577Z,39.12
2022-12-04T10:38:19.959Z,38.53
2022-12-04T10:40:52.306Z,38.56
2022-12-04T10:43:28.856Z,38.17
2022-12-04T10:45:59.280Z,38.68
2022-12-04T10:48:31.499Z,38.56
2022-12-04T10:51:03.239Z,38.03
2022-12-04T10:53:34.372Z,38.38
2022-12-04T10:56:13.372Z,38.22
2022-12-04T10:58:43.654Z,38.14
2022-12-04T11:01:14.813Z,37.58
2022-12-04T11:03:45.166Z,37.77
2022-12-04T11:06:15.467Z,37.62
2022-12-04T11:08:52.122Z,37.79
2022-12-04T11:11:26.011Z,37.58
2022-12-04T11:14:04.078Z,37.36
2022-12-04T11:16:36.988Z,36.97
2022-12-04T11:19:19.180Z,37.01
2022-12-04T11:21:54.369Z,36.87
2022-12-04T11:24:25.583Z,37.19
2022-12-04T11:29:57.211Z,36.67
2022-12-04T11:32:27.877Z,36.20
2022-12-04T11:35:26.184Z,36.30
2022-12-04T11:37:57.372Z,36.60
2022-12-04T11:40:33.030Z,36.37
2022-12-04T11:43:05.133Z,35.93
2022-12-04T11:45:35.130Z,35.24
2022-12-04T11:48:05.557Z,34.72
2022-12-04T11:50:39.865Z,34.62
2022-12-04T11:53:28.336Z,34.40
2022-12-04T11:56:17.795Z,34.13
2022-12-04T11:58:56.075Z,34.13
2022-12-04T12:01:34.473Z,34.37
2022-12-04T12:04:19.767Z,34.13
2022-12-04T12:06:53.010Z,33.95
2022-12-04T12:09:24.983Z,33.96
2022-12-04T12:11:56.502Z,33.77
2022-12-04T12:14:29.472Z,33.92
2022-12-04T12:17:05.498Z,33.52
2022-12-04T12:19:39.488Z,33.81
2022-12-04T12:22:13.672Z,33.79
2022-12-04T12:24:47.000Z,33.30
2022-12-04T12:27:25.999Z,33.33
2022-12-04T12:29:59.391Z,33.20
2022-12-04T12:32:33.920Z,33.12
2022-12-04T12:35:05.180Z,33.11
2022-12-04T12:37:38.726Z,33.36
2022-12-04T12:40:11.555Z,33.85
2022-12-04T12:42:42.079Z,33.72
2022-12-04T12:45:18.364Z,33.61
2022-12-04T12:47:48.491Z,33.80
2022-12-04T12:50:19.175Z,33.84
2022-12-04T12:52:49.543Z,34.04
2022-12-04T12:55:19.789Z,33.77
2022-12-04T12:57:50.926Z,33.39
2022-12-04T13:00:21.791Z,33.22
2022-12-04T13:02:53.500Z,33.43
2022-12-04T13:05:26.107Z,33.59
2022-12-04T13:07:59.657Z,33.55
2022-12-04T13:10:30.345Z,33.04
2022-12-04T13:13:01.258Z,33.30
2022-12-04T13:15:33.149Z,33.52
2022-12-04T13:18:02.843Z,34.18
2022-12-04T13:20:33.163Z,34.77
2022-12-04T13:23:10.650Z,35.10
2022-12-04T13:25:44.091Z,35.65
2022-12-04T13:28:19.505Z,35.42
2022-12-04T13:30:50.511Z,35.37
2022-12-04T13:33:31.176Z,35.66
2022-12-04T13:36:15.367Z,36.22
2022-12-04T13:38:48.376Z,35.92
2022-12-04T13:41:22.124Z,35.65
2022-12-04T13:43:52.910Z,35.57
2022-12-04T13:46:29.866Z,36.16
2022-12-04T13:49:10.126Z,37.97
2022-12-04T13:51:40.762Z,38.66
2022-12-04T13:54:24.696Z,38.88
2022-12-04T13:56:55.843Z,39.45
2022-12-04T13:59:39.130Z,40.21
2022-12-04T14:02:22.889Z,40.21
2022-12-04T14:04:56.254Z,40.18
2022-12-04T14:07:27.781Z,39.85
2022-12-04T14:09:57.960Z,39.91
2022-12-04T14:12:29.747Z,40.50
2022-12-04T14:15:00.586Z,40.96
2022-12-04T14:17:31.118Z,41.57
2022-12-04T14:20:07.351Z,41.14
2022-12-04T14:22:44.875Z,40.84
2022-12-04T14:25:36.027Z,41.51
2022-12-04T14:28:15.975Z,41.60
2022-12-04T14:30:46.192Z,42.22
2022-12-04T14:33:19.253Z,41.98
2022-12-04T14:35:49.692Z,42.35
2022-12-04T14:38:20.992Z,42.05
2022-12-04T14:40:51.165Z,42.49
2022-12-04T14:43:21.685Z,43.22
2022-12-04T14:45:52.316Z,43.33
2022-12-04T14:48:27.143Z,43.63
2022-12-04T14:50:58.860Z,43.80
2022-12-04T14:53:31.546Z,43.93
2022-12-04T14:56:07.620Z,43.71
2022-12-04T14:58:38.495Z,43.92
2022-12-04T15:01:09.041Z,43.96
2022-12-04T15:03:43.131Z,44.59
2022-12-04T15:06:15.260Z,44.52
2022-12-04T15:08:50.902Z,44.56
2022-12-04T15:11:38.458Z,44.37
2022-12-04T15:14:11.285Z,44.35
2022-12-04T15:16:41.286Z,44.82
2022-12-04T15:19:18.040Z,45.29
2022-12-04T15:21:49.242Z,45.30
2022-12-04T15:24:20.524Z,45.27
2022-12-04T15:26:50.558Z,45.48
2022-12-04T15:29:21.289Z,45.40
2022-12-04T15:31:56.861Z,45.31
2022-12-04T15:34:28.135Z,44.89
2022-12-04T15:36:59.753Z,45.18
2022-12-04T15:39:29.925Z,45.34
2022-12-04T15:42:06.595Z,44.87
2022-12-04T15:44:36.618Z,44.42
2022-12-04T15:47:17.981Z,44.69
2022-12-04T15:49:47.913Z,44.87
2022-12-04T15:52:18.698Z,45.03
2022-12-04T15:54:49.939Z,45.00
2022-12-04T15:57:23.457Z,45.42
2022-12-04T15:59:54.021Z,45.56
2022-12-04T16:02:25.073Z,45.92
2022-12-04T16:04:54.793Z,45.79
2022-12-04T16:07:25.061Z,45.46
2022-12-04T16:10:01.072Z,45.47
2022-12-04T16:12:33.264Z,45.55
2022-12-04T16:15:03.297Z,45.45
2022-12-04T16:17:33.273Z,45.41
2022-12-04T16:20:05.761Z,45.51
2022-12-04T16:22:35.611Z,45.56
2022-12-04T16:25:05.608Z,45.84
2022-12-04T16:27:35.457Z,46.03
2022-12-04T16:30:06.092Z,46.42
2022-12-04T16:32:35.809Z,46.56
2022-12-04T16:35:06.215Z,46.47
2022-12-04T16:37:36.119Z,46.55
2022-12-04T16:40:06.826Z,46.84
2022-12-04T16:42:36.803Z,46.97
2022-12-04T16:45:07.138Z,46.73
2022-12-04T16:47:37.018Z,47.05
2022-12-04T16:50:08.058Z,47.18
2022-12-04T16:52:37.712Z,47.42
2022-12-04T16:55:11.019Z,47.56
2022-12-04T16:57:40.632Z,47.66
2022-12-04T17:00:11.983Z,48.02
2022-12-04T17:02:41.722Z,48.32
2022-12-04T17:05:12.002Z,48.27
2022-12-04T17:07:42.533Z,48.43
2022-12-04T17:10:13.199Z,48.89
2022-12-04T17:12:42.908Z,48.57
2022-12-04T17:15:13.177Z,48.94
2022-12-04T17:17:43.400Z,48.77
2022-12-04T17:20:13.922Z,49.03
2022-12-04T17:22:43.667Z,49.04
2022-12-04T17:25:13.443Z,49.34
2022-12-04T17:27:43.419Z,49.26
2022-12-04T17:30:14.037Z,49.66
2022-12-04T17:32:43.918Z,49.56
2022-12-04T17:35:14.043Z,49.72
2022-12-04T17:37:44.562Z,49.97
2022-12-04T17:40:15.896Z,50.18
2022-12-04T17:42:46.102Z,50.17
2022-12-04T17:45:17.239Z,50.27
2022-12-04T17:47:47.668Z,50.21
2022-12-04T17:50:17.771Z,50.51
2022-12-04T17:52:47.872Z,50.47
2022-12-04T17:55:17.746Z,50.61
2022-12-04T17:57:47.981Z,50.68
2022-12-04T18:00:18.193Z,50.67
2022-12-04T18:02:52.969Z,50.74
2022-12-04T18:05:23.510Z,50.79
2022-12-04T18:07:53.725Z,50.85
2022-12-04T18:10:24.666Z,50.90
2022-12-04T18:12:54.653Z,51.19
2022-12-04T18:15:24.562Z,51.49
2022-12-04T18:17:54.307Z,51.64
2022-12-04T18:20:24.145Z,51.94
2022-12-04T18:22:53.997Z,51.79
2022-12-04T18:25:24.448Z,51.95
2022-12-04T18:27:55.197Z,52.00
2022-12-04T18:30:25.689Z,51.96
2022-12-04T18:32:58.679Z,51.91
2022-12-04T18:35:28.532Z,52.08
2022-12-04T18:37:58.427Z,52.16
2022-12-04T18:40:28.146Z,52.32
2022-12-04T18:42:58.323Z,52.66
2022-12-04T18:45:28.378Z,52.74
2022-12-04T18:47:58.659Z,53.01
2022-12-04T18:50:29.326Z,53.52
2022-12-04T18:53:01.235Z,53.69
2022-12-04T18:55:31.238Z,53.95
2022-12-04T18:58:01.031Z,54.11
2022-12-04T19:00:31.318Z,54.53
2022-12-04T19:03:00.999Z,55.12
2022-12-04T19:05:30.810Z,55.33
2022-12-04T19:08:00.617Z,55.31
2022-12-04T19:10:30.801Z,55.49
2022-12-04T19:13:00.885Z,55.44
2022-12-04T19:15:31.113Z,55.59
2022-12-04T19:18:01.655Z,55.83
2022-12-04T19:20:31.889Z,56.15
2022-12-04T19:23:02.408Z,56.33
2022-12-04T19:25:32.368Z,56.21
2022-12-04T19:28:03.061Z,56.15
2022-12-04T19:30:33.397Z,56.44
2022-12-04T19:33:03.464Z,56.68
2022-12-04T19:35:33.416Z,56.87
2022-12-04T19:38:03.667Z,56.94
2022-12-04T19:40:33.633Z,56.89
2022-12-04T19:43:03.649Z,57.20
2022-12-04T19:45:33.835Z,57.49
2022-12-04T19:48:03.816Z,57.35
2022-12-04T19:50:34.423Z,57.28
2022-12-04T19:53:04.792Z,57.39
2022-12-04T19:55:34.788Z,57.44
2022-12-04T19:58:05.213Z,57.44
2022-12-04T20:00:34.974Z,57.90
2022-12-04T20:03:04.853Z,58.09
2022-12-04T20:05:38.654Z,58.60
2022-12-04T20:10:38.140Z,58.67
2022-12-04T20:13:07.972Z,58.71
2022-12-04T20:15:38.054Z,58.76
2022-12-04T20:18:07.913Z,58.88
2022-12-04T20:20:37.674Z,59.22
2022-12-04T20:23:07.531Z,59.35
2022-12-04T20:25:37.758Z,59.47
2022-12-04T20:28:11.516Z,59.67
2022-12-04T20:30:44.480Z,59.76
2022-12-04T20:33:14.671Z,59.98
2022-12-04T20:35:44.524Z,60.04
2022-12-04T20:38:15.376Z,60.37
2022-12-04T20:40:45.219Z,60.47
2022-12-04T20:43:15.007Z,60.51
2022-12-04T20:45:44.783Z,60.80
2022-12-04T20:48:14.606Z,60.71
2022-12-04T20:50:46.259Z,60.66
2022-12-04T20:53:16.051Z,61.06
2022-12-04T20:55:47.170Z,61.17
2022-12-04T20:58:19.270Z,61.30
2022-12-04T21:00:48.944Z,62.21
2022-12-04T21:03:18.980Z,61.71
2022-12-04T21:05:51.068Z,62.38
2022-12-04T21:08:40.909Z,62.35
2022-12-04T21:11:11.025Z,62.19
2022-12-04T21:13:58.497Z,62.63
2022-12-04T21:16:28.214Z,62.61
2022-12-04T21:18:58.176Z,62.53
2022-12-04T21:21:28.910Z,62.71
2022-12-04T21:23:58.582Z,62.96
2022-12-04T21:26:31.403Z,63.48
2022-12-04T21:29:01.219Z,63.69
2022-12-04T21:31:31.026Z,63.71
2022-12-04T21:34:01.236Z,64.43
2022-12-04T21:36:31.142Z,64.32
2022-12-04T21:39:00.874Z,64.25
2022-12-04T21:42:02.964Z,64.82
2022-12-04T21:44:32.709Z,64.51
2022-12-04T21:47:02.397Z,64.63
2022-12-04T21:49:32.584Z,65.05
2022-12-04T21:52:02.407Z,65.04
2022-12-04T21:54:32.193Z,64.98
2022-12-04T21:57:02.120Z,65.84
2022-12-04T21:59:32.003Z,66.11
2022-12-04T22:02:02.129Z,66.22
2022-12-04T22:04:32.363Z,65.90
2022-12-04T22:07:02.252Z,66.17
2022-12-04T22:09:31.940Z,66.48
2022-12-04T22:12:04.214Z,66.33
2022-12-04T22:14:44.776Z,66.29
2022-12-04T22:17:14.753Z,66.69
2022-12-04T22:19:44.714Z,67.19
2022-12-04T22:22:14.711Z,66.59
2022-12-04T22:24:44.791Z,66.26
2022-12-04T22:27:15.539Z,66.32
2022-12-04T22:30:01.408Z,66.41
2022-12-04T22:32:31.458Z,66.99
2022-12-04T22:35:01.550Z,66.76
2022-12-04T22:37:31.770Z,67.10
2022-12-04T22:40:02.004Z,67.23
2022-12-04T22:42:31.888Z,67.23
2022-12-04T22:45:01.855Z,67.47
2022-12-04T22:47:31.879Z,67.38
2022-12-04T22:50:02.024Z,67.76
2022-12-04T22:52:32.329Z,68.36
2022-12-04T22:55:02.372Z,68.33
2022-12-04T22:57:32.390Z,68.01
2022-12-04T23:00:02.536Z,67.69
2022-12-04T23:02:32.469Z,67.94
2022-12-04T23:05:02.409Z,68.33
2022-12-04T23:07:32.434Z,68.02
2022-12-04T23:10:02.623Z,67.96
2022-12-04T23:12:32.548Z,68.37
2022-12-04T23:15:02.397Z,68.39
2022-12-04T23:17:32.347Z,68.45
2022-12-04T23:20:02.274Z,68.61
2022-12-04T23:22:32.479Z,68.63
2022-12-04T23:25:02.368Z,68.31
2022-12-04T23:27:33.437Z,68.53
2022-12-04T23:30:03.450Z,68.22
2022-12-04T23:32:33.373Z,68.26
2022-12-04T23:35:03.178Z,68.55
2022-12-04T23:37:33.109Z,68.72
2022-12-04T23:40:03.041Z,68.73
2022-12-04T23:42:33.511Z,69.10
2022-12-04T23:45:03.308Z,69.08
2022-12-04T23:47:33.260Z,69.45
2022-12-04T23:50:03.173Z,69.50
2022-12-04T23:52:32.986Z,69.34
2022-12-04T23:55:03.001Z,69.37
2022-12-04T23:57:33.024Z,69.70
